| Date | Time | Temp. (oF) | Dew Point (oF) | Rel. Hum. (%) | Press. (in.) | Wind Dir. | Wind Speed (mph) | Hourly Rainfall (in.) |
|
|---|---|---|---|---|---|---|---|---|---|
| 1 | 01/16 | 00:00 | 16 | 5 | 63 | 30.29 | SW | 8 | 0.00 |
| 2 | 01/15 | 23:00 | 17 | 5 | 60 | 30.29 | WNW | 7 | 0.00 |
| 3 | 01/15 | 22:00 | 17 | 5 | 61 | 30.29 | WNW | 16 | 0.00 |
| 4 | 01/15 | 21:00 | 18 | 6 | 61 | 30.27 | W | 5 | 0.00 |
| 5 | 01/15 | 20:00 | 19 | 7 | 60 | 30.26 | SW | 6 | 0.00 |
| 6 | 01/15 | 19:00 | 20 | 6 | 55 | 30.25 | WNW | 7 | 0.00 |
| 7 | 01/15 | 18:00 | 21 | 6 | 53 | 30.22 | W | 5 | 0.00 |
| 8 | 01/15 | 17:00 | 23 | 6 | 49 | 30.18 | SSW | 13 | 0.00 |
| 9 | 01/15 | 16:00 | 25 | 7 | 47 | 30.15 | WSW | 11 | 0.00 |
| 10 | 01/15 | 15:00 | 26 | 7 | 46 | 30.13 | WSW | 7 | 0.00 |
| 11 | 01/15 | 14:00 | 26 | 13 | 60 | 30.12 | WSW | 4 | 0.00 |
| 12 | 01/15 | 13:00 | 26 | 14 | 62 | 30.14 | WNW | 8 | 0.00 |
| 13 | 01/15 | 12:00 | 25 | 11 | 55 | 30.16 | NW | 4 | 0.00 |
| 14 | 01/15 | 11:00 | 25 | 8 | 50 | 30.19 | NW | 15 | 0.00 |
| 15 | 01/15 | 10:00 | 23 | 11 | 62 | 30.19 | WNW | 7 | 0.00 |
| 16 | 01/15 | 09:00 | 22 | 13 | 70 | 30.18 | WSW | 4 | 0.00 |
| 17 | 01/15 | 08:00 | 18 | 12 | 78 | 30.16 | WSW | 2 | 0.00 |
| 18 | 01/15 | 07:00 | 19 | 12 | 76 | 30.15 | W | 3 | 0.00 |
| 19 | 01/15 | 06:00 | 20 | 15 | 81 | 30.14 | WNW | 3 | 0.00 |
| 20 | 01/15 | 05:00 | 21 | 19 | 92 | 30.13 | SW | 4 | 0.00 |
| 21 | 01/15 | 04:00 | 21 | 18 | 90 | 30.13 | WNW | 5 | 0.00 |
| 22 | 01/15 | 03:00 | 21 | 18 | 91 | 30.12 | SW | 2 | 0.00 |
| 23 | 01/15 | 02:00 | 22 | 18 | 88 | 30.12 | W | 1 | 0.00 |
| 24 | 01/15 | 01:00 | 22 | 16 | 80 | 30.11 | WNW | 4 | 0.00 |